Time;durP1;ratioP1;P1;durP2;ratioP2;P2;SDS_P1;SDS_P2;PMS_P1;PMS_P2;Temp;Humidity;BMP_temperature;BMP_pressure;BME280_temperature;BME280_humidity;BME280_pressure;Samples;Min_cycle;Max_cycle;Signal;HPM_P1;HPM_P2
2021/11/08 00:01:43;;;;;;;23.92;12.43;;;;;;;5.32;100.00;100942.56;20743707;28;20046;-71
2021/11/08 00:11:45;;;;;;;21.52;11.23;;;;;;;5.14;100.00;100940.56;20743885;28;20050;-71
2021/11/08 00:21:48;;;;;;;22.20;11.48;;;;;;;5.12;100.00;100927.53;20743487;28;20054;-71
2021/11/08 00:31:50;;;;;;;28.15;12.35;;;;;;;5.23;100.00;100952.81;20740087;28;20084;-70
2021/11/08 00:41:52;;;;;;;24.60;13.00;;;;;;;5.35;100.00;100948.63;20741020;28;20046;-72
2021/11/08 00:51:54;;;;;;;20.98;11.15;;;;;;;5.39;100.00;100960.81;20740611;28;20046;-72
2021/11/08 01:01:58;;;;;;;24.15;11.27;;;;;;;5.39;100.00;100950.44;20738962;28;20053;-71
2021/11/08 01:11:59;;;;;;;27.98;13.07;;;;;;;5.28;100.00;100957.22;20738490;28;20065;-71
2021/11/08 01:22:06;;;;;;;23.05;11.55;;;;;;;5.15;100.00;100961.34;20739204;28;20042;-70
2021/11/08 01:32:10;;;;;;;26.90;11.52;;;;;;;4.92;100.00;100954.91;20737213;28;20093;-70
2021/11/08 01:42:15;;;;;;;21.52;11.10;;;;;;;4.77;100.00;100967.63;20736666;28;20423;-70
2021/11/08 01:52:17;;;;;;;24.13;12.10;;;;;;;4.61;100.00;100982.94;20736665;28;20820;-70
2021/11/08 02:02:19;;;;;;;25.27;11.82;;;;;;;4.50;100.00;100980.97;20735694;28;20554;-71
2021/11/08 02:12:20;;;;;;;26.45;11.50;;;;;;;4.32;100.00;100987.59;20735432;28;20103;-72
2021/11/08 02:22:23;;;;;;;23.98;11.02;;;;;;;4.25;100.00;100993.47;20735304;28;20100;-72
2021/11/08 02:32:25;;;;;;;20.98;11.48;;;;;;;4.15;100.00;100985.50;20734142;28;20120;-71
2021/11/08 02:42:27;;;;;;;27.55;14.90;;;;;;;4.23;100.00;100999.50;20734109;28;20053;-72
2021/11/08 02:52:28;;;;;;;28.92;13.45;;;;;;;4.50;100.00;100999.13;20736504;28;20050;-71
2021/11/08 03:02:32;;;;;;;31.33;14.93;;;;;;;4.62;100.00;100989.88;20748814;28;20053;-72
2021/11/08 03:12:37;;;;;;;32.28;13.52;;;;;;;4.66;99.14;101002.91;20747986;28;20045;-72
2021/11/08 03:22:47;;;;;;;31.33;13.30;;;;;;;4.66;98.78;100997.72;20748526;28;20104;-73
2021/11/08 03:32:51;;;;;;;35.80;12.15;;;;;;;4.55;98.98;100992.31;20745890;28;20092;-72
2021/11/08 03:42:54;;;;;;;36.90;12.47;;;;;;;4.49;98.77;101005.16;20797966;28;20446;-71
2021/11/08 03:52:56;;;;;;;27.52;11.63;;;;;;;4.43;99.38;101010.25;20826806;28;20104;-72
2021/11/08 04:02:58;;;;;;;26.60;12.80;;;;;;;4.49;98.73;101018.13;20826000;28;20111;-72
2021/11/08 04:13:04;;;;;;;27.67;11.68;;;;;;;4.60;98.63;101020.09;20827013;28;20479;-72
2021/11/08 04:23:06;;;;;;;27.67;11.48;;;;;;;4.50;98.09;101010.38;20824205;28;20101;-71
2021/11/08 04:33:33;;;;;;;27.35;11.10;;;;;;;4.50;98.01;101028.53;20823610;28;20099;-71
2021/11/08 04:53:57;;;;;;;25.43;11.27;;;;;;;4.41;98.85;101045.63;20822140;28;20137;-73
2021/11/08 05:34:56;;;;;;;18.88;10.43;;;;;;;3.98;98.16;101060.31;20818136;28;20118;-71
2021/11/08 05:44:58;;;;;;;22.10;10.57;;;;;;;3.82;97.74;101067.72;20818535;28;20048;-72
2021/11/08 05:55:01;;;;;;;27.90;11.65;;;;;;;3.74;98.12;101069.28;20817827;28;20072;-71
2021/11/08 06:56:52;;;;;;;28.17;11.95;;;;;;;3.26;98.40;101131.13;20831354;28;20100;-72
2021/11/08 07:06:54;;;;;;;40.83;15.70;;;;;;;3.25;98.06;101140.56;20830597;28;20473;-71
2021/11/08 07:16:56;;;;;;;41.25;18.75;;;;;;;3.31;97.92;101153.69;20830418;28;20058;-72
2021/11/08 07:26:57;;;;;;;28.63;14.15;;;;;;;3.32;97.59;101155.44;20828918;28;20095;-71
2021/11/08 07:36:59;;;;;;;30.52;14.55;;;;;;;3.33;97.75;101164.94;20785101;28;20099;-71
2021/11/08 07:47:00;;;;;;;26.38;13.25;;;;;;;3.43;98.97;101173.81;20824986;28;20119;-71
2021/11/08 07:57:03;;;;;;;25.63;12.98;;;;;;;3.53;98.80;101174.94;20826660;28;20513;-71
2021/11/08 08:07:05;;;;;;;19.70;10.70;;;;;;;3.57;98.35;101184.53;20817293;28;20108;-71
2021/11/08 08:17:06;;;;;;;30.75;14.88;;;;;;;3.86;98.14;101186.13;20764344;28;20552;-71
2021/11/08 08:27:08;;;;;;;28.35;14.88;;;;;;;4.22;98.15;101189.56;20775098;28;20053;-71
2021/11/08 08:37:10;;;;;;;30.30;12.50;;;;;;;4.62;96.50;101186.09;20763593;28;20045;-71
2021/11/08 08:47:12;;;;;;;22.27;10.85;;;;;;;4.96;96.89;101166.91;20815445;28;20080;-71
2021/11/08 08:57:14;;;;;;;23.42;10.82;;;;;;;5.25;96.00;101175.22;20814109;28;20076;-70
2021/11/08 09:07:16;;;;;;;27.05;9.93;;;;;;;5.56;95.10;101173.19;20814046;28;20099;-70
2021/11/08 09:17:17;;;;;;;26.05;11.10;;;;;;;5.91;94.37;101176.38;20751376;28;20115;-70
2021/11/08 09:27:48;;;;;;;27.10;9.85;;;;;;;6.41;92.69;101174.53;20967073;28;20399;-69
2021/11/08 09:37:50;;;;;;;23.23;8.82;;;;;;;7.05;89.23;101184.00;21029751;28;20048;-69
2021/11/08 09:47:52;;;;;;;19.23;7.53;;;;;;;7.77;88.36;101185.59;21048825;28;20044;-69
2021/11/08 09:57:54;;;;;;;18.70;7.45;;;;;;;8.05;87.12;101183.16;21047655;28;20106;-70
2021/11/08 10:07:58;;;;;;;16.35;6.68;;;;;;;8.34;83.62;101183.38;21045583;28;20044;-68
2021/11/08 10:18:05;;;;;;;22.48;6.75;;;;;;;8.36;82.43;101182.53;21045476;28;20546;-68
2021/11/08 10:28:09;;;;;;;18.17;7.53;;;;;;;8.56;84.62;101158.28;21045517;28;20489;-68
2021/11/08 10:38:14;;;;;;;16.60;6.30;;;;;;;8.33;83.07;101145.97;20993940;28;20036;-69
2021/11/08 10:48:19;;;;;;;43.55;12.98;;;;;;;8.41;82.14;101165.19;20987834;28;20083;-68
2021/11/08 10:58:23;;;;;;;19.83;5.33;;;;;;;8.61;83.34;101152.22;20986746;28;20493;-69
2021/11/08 11:08:25;;;;;;;156.40;45.58;;;;;;;8.66;81.82;101154.84;20985078;28;20056;-68
2021/11/08 11:18:33;;;;;;;16.90;7.25;;;;;;;8.74;81.14;101140.09;20911138;28;20053;-69
2021/11/08 11:28:40;;;;;;;20.42;6.88;;;;;;;8.81;80.57;101143.59;20901481;28;20049;-70
2021/11/08 11:38:52;;;;;;;18.70;5.20;;;;;;;8.90;78.63;101135.78;20900728;28;20044;-69
2021/11/08 11:48:55;;;;;;;21.17;6.65;;;;;;;9.11;78.89;101128.03;20898395;28;20136;-69
2021/11/08 11:58:58;;;;;;;21.38;6.22;;;;;;;9.11;78.02;101124.53;20898359;28;20057;-69
2021/11/08 12:09:02;;;;;;;23.48;6.55;;;;;;;9.27;78.76;101131.53;20897758;28;20053;-69
2021/11/08 12:19:04;;;;;;;15.20;5.53;;;;;;;9.22;77.58;101125.41;20974926;28;20476;-69
2021/11/08 12:29:08;;;;;;;16.10;4.50;;;;;;;9.42;76.25;101121.06;20979684;28;20117;-69
2021/11/08 12:39:17;;;;;;;19.37;4.47;;;;;;;9.51;73.03;101114.97;20978600;28;20554;-69
2021/11/08 12:49:27;;;;;;;12.93;4.85;;;;;;;9.80;74.02;101109.72;20977428;28;20485;-69
2021/11/08 12:59:33;;;;;;;15.43;4.50;;;;;;;10.02;72.23;101102.75;20977309;28;20102;-70
2021/11/08 13:09:39;;;;;;;18.73;4.90;;;;;;;10.23;72.52;101104.41;20975467;28;20094;-71
2021/11/08 13:19:49;;;;;;;;;;;;;;;10.21;74.21;101096.59;20959266;28;20097;-70
2021/11/08 13:30:06;;;;;;;16.80;4.72;;;;;;;10.20;69.99;101096.56;20976287;28;20297;-70
2021/11/08 13:40:16;;;;;;;17.55;5.05;;;;;;;9.89;72.93;101108.84;20972312;28;20048;-71
2021/11/08 13:50:20;;;;;;;14.98;4.30;;;;;;;9.89;71.02;101108.84;20974302;28;20489;-71
2021/11/08 14:00:22;;;;;;;14.77;5.10;;;;;;;10.12;71.91;101114.06;20975012;28;20114;-70
2021/11/08 14:10:23;;;;;;;18.40;4.10;;;;;;;10.33;70.00;101121.88;20976159;28;20068;-71
2021/11/08 14:20:28;;;;;;;18.50;3.75;;;;;;;10.30;66.01;101119.28;20905561;28;20056;-70
2021/11/08 14:30:30;;;;;;;17.37;3.37;;;;;;;10.28;66.61;101118.38;20906084;28;20106;-70
2021/11/08 14:40:37;;;;;;;12.18;2.95;;;;;;;10.09;66.19;101127.13;20904057;28;20410;-69
2021/11/08 14:50:38;;;;;;;12.95;2.83;;;;;;;9.83;67.79;101128.06;20979563;28;20048;-69
2021/11/08 15:00:47;;;;;;;13.25;3.17;;;;;;;9.73;66.74;101136.78;20986639;28;20094;-69
2021/11/08 15:10:57;;;;;;;15.20;3.72;;;;;;;9.55;69.00;101123.72;20976026;28;20041;-69
2021/11/08 15:21:02;;;;;;;14.93;3.97;;;;;;;9.35;70.64;101119.34;20900386;28;20102;-69
2021/11/08 15:31:19;;;;;;;15.27;5.05;;;;;;;9.09;74.27;101136.72;20900314;28;20043;-70
2021/11/08 15:41:22;;;;;;;11.55;3.90;;;;;;;8.86;76.15;101142.75;20901007;28;20048;-69
2021/11/08 15:51:29;;;;;;;19.25;5.47;;;;;;;8.54;78.79;101162.66;20898297;28;20041;-69
2021/11/08 16:01:34;;;;;;;21.80;5.40;;;;;;;8.43;80.15;101178.22;20896303;28;20091;-69
2021/11/08 16:11:36;;;;;;;;;;;;;;;8.32;82.00;101175.53;20912770;28;20045;-69
2021/11/08 16:21:38;;;;;;;14.23;5.47;;;;;;;8.20;82.91;101170.25;20978815;28;19924;-70
2021/11/08 16:31:49;;;;;;;14.63;6.18;;;;;;;8.09;84.07;101170.16;20976563;28;20044;-69
2021/11/08 16:41:54;;;;;;;17.63;6.05;;;;;;;7.79;85.91;101172.56;20977113;28;20052;-71
2021/11/08 16:51:57;;;;;;;36.73;15.43;;;;;;;7.46;87.51;101190.50;20961765;28;20123;-72
2021/11/08 17:01:58;;;;;;;37.58;14.00;;;;;;;7.36;87.93;101213.84;20975399;28;20086;-71
2021/11/08 17:22:21;;;;;;;37.40;18.60;;;;;;;6.90;90.46;101250.66;20961543;28;20052;-72
2021/11/08 17:32:23;;;;;;;24.00;10.75;;;;;;;7.01;90.27;101248.19;20965061;28;20043;-72
2021/11/08 17:42:24;;;;;;;24.20;10.05;;;;;;;7.07;90.27;101258.66;20979764;28;20109;-72
2021/11/08 17:52:26;;;;;;;22.90;9.70;;;;;;;6.90;91.08;101268.88;20990999;28;20048;-71
2021/11/08 18:02:28;;;;;;;18.90;8.77;;;;;;;6.79;91.59;101272.19;20988789;28;20052;-73
2021/11/08 18:12:29;;;;;;;27.75;10.57;;;;;;;6.74;90.83;101284.25;20990611;28;20049;-71
2021/11/08 18:22:42;;;;;;;21.95;8.88;;;;;;;6.54;91.16;101289.19;20989041;28;20452;-70
2021/11/08 18:32:46;;;;;;;20.83;9.57;;;;;;;6.42;91.16;101285.56;20989798;28;20044;-70
2021/11/08 18:42:51;;;;;;;26.53;10.43;;;;;;;6.19;92.34;101284.31;20990281;28;20060;-71
2021/11/08 18:52:54;;;;;;;23.53;9.87;;;;;;;5.98;93.06;101302.13;20987157;28;20090;-71
2021/11/08 19:03:06;;;;;;;26.65;12.88;;;;;;;6.10;91.64;101317.94;20985222;28;20799;-71
2021/11/08 19:13:08;;;;;;;31.08;14.93;;;;;;;6.01;92.35;101333.38;20957374;28;20540;-71
2021/11/08 19:23:10;;;;;;;24.08;10.38;;;;;;;5.83;93.86;101326.97;20901815;28;20652;-71
2021/11/08 19:33:21;;;;;;;28.70;12.20;;;;;;;5.64;94.27;101330.06;20898933;28;20095;-70
2021/11/08 19:43:26;;;;;;;30.70;12.68;;;;;;;5.64;94.50;101332.66;20899647;28;20102;-70
2021/11/08 19:53:29;;;;;;;25.92;9.57;;;;;;;5.62;95.01;101336.97;20898355;28;20095;-70
2021/11/08 20:03:32;;;;;;;25.58;8.70;;;;;;;5.34;94.71;101331.22;20925411;28;20482;-70
2021/11/08 20:13:49;;;;;;;17.25;8.68;;;;;;;5.20;95.42;101331.78;20935464;28;20066;-70
2021/11/08 20:23:51;;;;;;;26.80;9.50;;;;;;;5.07;95.51;101341.00;20929244;28;20056;-70
2021/11/08 20:54:56;;;;;;;27.35;13.52;;;;;;;4.56;94.58;101358.03;20894591;28;20574;-70
2021/11/08 21:04:48;;;;;;;28.00;11.45;;;;;;;4.44;95.58;101377.59;20890702;28;20056;-70
2021/11/08 21:14:50;;;;;;;34.83;11.65;;;;;;;4.17;95.35;101378.66;20935393;28;20094;-70
2021/11/08 21:24:54;;;;;;;28.48;12.57;;;;;;;4.01;95.02;101379.94;20974396;28;20398;-70
2021/11/08 21:45:17;;;;;;;27.90;11.95;;;;;;;3.84;95.30;101400.22;20975778;28;20562;-70
2021/11/08 21:55:20;;;;;;;29.05;13.65;;;;;;;3.81;94.31;101400.13;20975032;28;20393;-71
2021/11/08 22:05:22;;;;;;;27.13;12.13;;;;;;;3.77;94.64;101387.06;20973753;28;20106;-72
2021/11/08 22:15:26;;;;;;;30.42;12.48;;;;;;;3.75;94.12;101384.44;20926736;28;20088;-73
2021/11/08 22:25:28;;;;;;;32.40;11.95;;;;;;;3.79;94.91;101390.59;20891757;28;20072;-71
2021/11/08 22:35:30;;;;;;;26.05;11.70;;;;;;;3.84;95.30;101392.47;20902617;28;20047;-72
2021/11/08 22:45:32;;;;;;;42.50;20.10;;;;;;;3.96;94.00;101389.31;20904453;28;20059;-73
2021/11/08 22:55:34;;;;;;;23.23;11.63;;;;;;;3.93;93.52;101399.63;20903501;28;20056;-74
2021/11/08 23:05:36;;;;;;;24.40;12.55;;;;;;;3.72;94.12;101384.34;20929827;28;20053;-74
2021/11/08 23:15:38;;;;;;;26.80;12.40;;;;;;;3.60;94.50;101390.06;20989988;28;20135;-72
2021/11/08 23:25:40;;;;;;;22.40;11.40;;;;;;;3.41;94.51;101392.09;20990432;28;20498;-73
2021/11/08 23:35:43;;;;;;;28.00;12.70;;;;;;;3.19;95.36;101385.38;20988430;28;20048;-72
2021/11/08 23:45:44;;;;;;;33.40;14.65;;;;;;;3.05;95.24;101387.53;20989011;28;20059;-72
2021/11/08 23:55:49;;;;;;;25.40;12.98;;;;;;;2.97;95.49;101381.25;20989574;28;20052;-72
